Clearwater, Missouri
Current Conditions -  °F | °C
As of 7:35 PM on Friday 24 Oct 2014 (Local Time) from KSAR Reporting Station
Clear Clear  
Wind Chill: 62°   Ceiling: Unl
Heat Index: 62°   Visibility: 10mi
Dew Point: 50°   Wind: 5mph
Humidity: 63%   Direction: 150°SSE
Pressure: 30.04"   Gusts: NA
Location:  37.9762°N, 90.0499°W
Report Text: KSAR 250035Z AUTO 15004KT 10SM CLR 17/10 A3004 RMK AO2 T01690099
Loading
Personal Weather Stations






























Interactive Weather Map
Tropical Storm Tracking
New forecast layout! Learn more

10-Day Weather Forecast

Advertisements
Track Severe Weather on mobile